Time;durP1;ratioP1;P1;durP2;ratioP2;P2;SDS_P1;SDS_P2;PMS_P1;PMS_P2;Temp;Humidity;BMP_temperature;BMP_pressure;BME280_temperature;BME280_humidity;BME280_pressure;Samples;Min_cycle;Max_cycle;Signal;HPM_P1;HPM_P2
2024/01/05 00:00:14;;;;;;;0.10;0.10;;;2.60;99.90;;;;;;5054801;28;20049;-75
2024/01/05 00:02:40;;;;;;;0.10;0.10;;;2.60;99.90;;;;;;5057234;28;20689;-75
2024/01/05 00:05:08;;;;;;;0.10;0.10;;;2.60;99.90;;;;;;5059270;28;20040;-75
2024/01/05 00:07:34;;;;;;;0.10;0.10;;;2.60;99.90;;;;;;5058994;28;20112;-75
2024/01/05 00:10:12;;;;;;;1.05;1.05;;;2.60;99.90;;;;;;5063117;28;20363;-75
2024/01/05 00:12:38;;;;;;;0.10;0.10;;;2.50;99.90;;;;;;5063518;28;20078;-75
2024/01/05 00:15:05;;;;;;;0.10;0.10;;;2.40;99.90;;;;;;5060184;28;20013;-76
2024/01/05 00:17:31;;;;;;;0.10;0.10;;;2.60;99.90;;;;;;5058300;28;20062;-75
2024/01/05 00:19:57;;;;;;;0.00;0.00;;;2.60;99.90;;;;;;5052232;28;20021;-76
2024/01/05 00:22:24;;;;;;;0.10;0.10;;;2.70;99.90;;;;;;5052906;28;20036;-75
2024/01/05 00:24:51;;;;;;;0.10;0.10;;;2.60;99.90;;;;;;5054885;28;20039;-75
2024/01/05 00:27:17;;;;;;;0.10;0.10;;;2.50;99.90;;;;;;5051145;28;20029;-75
2024/01/05 00:29:44;;;;;;;0.10;0.10;;;2.50;99.90;;;;;;5035171;28;20025;-75
2024/01/05 00:32:11;;;;;;;0.38;0.38;;;2.40;99.90;;;;;;5051098;28;20013;-76
2024/01/05 00:34:46;;;;;;;0.10;0.10;;;2.30;99.90;;;;;;5056602;28;20078;-75
2024/01/05 00:37:12;;;;;;;0.10;0.10;;;2.30;99.90;;;;;;5059402;28;20021;-75
2024/01/05 00:39:38;;;;;;;0.08;0.08;;;2.30;99.90;;;;;;5051730;28;20058;-76
2024/01/05 00:42:06;;;;;;;0.10;0.10;;;2.30;99.90;;;;;;5053410;28;20032;-75
2024/01/05 00:44:32;;;;;;;0.10;0.10;;;2.40;99.90;;;;;;5051787;28;20163;-75
2024/01/05 00:46:59;;;;;;;0.10;0.10;;;2.40;99.90;;;;;;5053937;28;20052;-75
2024/01/05 00:49:27;;;;;;;0.10;0.10;;;2.40;99.90;;;;;;5052955;28;20025;-75
2024/01/05 00:51:53;;;;;;;0.10;0.10;;;2.40;99.90;;;;;;5053186;28;20021;-75
2024/01/05 00:54:19;;;;;;;0.10;0.10;;;2.40;99.90;;;;;;5047142;28;20040;-75
2024/01/05 00:56:46;;;;;;;0.10;0.10;;;2.80;99.90;;;;;;5045990;28;20021;-75
2024/01/05 00:59:12;;;;;;;0.10;0.10;;;2.40;99.90;;;;;;5054853;28;20067;-75
2024/01/05 01:01:39;;;;;;;0.10;0.10;;;2.40;99.90;;;;;;5054392;28;20271;-75
2024/01/05 01:04:07;;;;;;;0.10;0.10;;;2.50;99.90;;;;;;5055126;28;20166;-75
2024/01/05 01:06:33;;;;;;;0.20;0.20;;;2.50;99.90;;;;;;5052829;28;20049;-75
2024/01/05 01:09:02;;;;;;;0.10;0.10;;;2.50;99.90;;;;;;5051465;28;20029;-75
2024/01/05 01:11:29;;;;;;;0.10;0.10;;;2.50;99.90;;;;;;5032765;28;20093;-75
2024/01/05 01:13:56;;;;;;;0.13;0.13;;;2.50;99.90;;;;;;5035994;28;20044;-75
2024/01/05 01:16:22;;;;;;;0.20;0.20;;;2.40;99.90;;;;;;5021340;28;20666;-75
2024/01/05 01:18:48;;;;;;;0.10;0.10;;;2.40;99.90;;;;;;5051457;28;20036;-75
2024/01/05 01:21:16;;;;;;;0.20;0.20;;;2.40;99.90;;;;;;5051383;28;20120;-75
2024/01/05 01:23:42;;;;;;;0.10;0.10;;;2.40;99.90;;;;;;5051391;28;20021;-75
2024/01/05 01:26:08;;;;;;;0.10;0.10;;;2.40;99.90;;;;;;5052257;28;20043;-75
2024/01/05 01:28:37;;;;;;;0.10;0.10;;;2.40;99.90;;;;;;5054007;28;20060;-75
2024/01/05 01:31:04;;;;;;;0.10;0.10;;;2.40;99.90;;;;;;5047432;28;20014;-75
2024/01/05 01:33:29;;;;;;;0.00;0.00;;;2.50;99.90;;;;;;5017306;28;20045;-75
2024/01/05 01:35:55;;;;;;;0.10;0.10;;;2.50;99.90;;;;;;5030195;28;20668;-75
2024/01/05 01:38:34;;;;;;;0.10;0.10;;;2.50;99.90;;;;;;5033738;28;20021;-75
2024/01/05 01:41:00;;;;;;;0.10;0.10;;;2.50;99.90;;;;;;5033287;28;20046;-75
2024/01/05 01:43:27;;;;;;;0.10;0.10;;;2.40;99.90;;;;;;5035460;28;20017;-75
2024/01/05 01:45:55;;;;;;;3.63;3.50;;;2.40;99.90;;;;;;5033786;28;20022;-75
2024/01/05 01:48:22;;;;;;;0.10;0.10;;;2.50;99.90;;;;;;5030218;28;20128;-75
2024/01/05 01:50:49;;;;;;;0.10;0.10;;;2.40;99.90;;;;;;5033292;28;20067;-75
2024/01/05 01:53:18;;;;;;;0.20;0.20;;;2.40;99.90;;;;;;5030542;28;20084;-74
2024/01/05 01:55:48;;;;;;;0.10;0.10;;;2.40;99.90;;;;;;5026868;28;20029;-75
2024/01/05 01:58:18;;;;;;;7.13;6.82;;;2.40;99.90;;;;;;5040908;28;20025;-77
2024/01/05 02:00:47;;;;;;;0.10;0.10;;;2.30;99.90;;;;;;5046684;28;20053;-75
2024/01/05 02:03:15;;;;;;;0.10;0.10;;;2.30;99.90;;;;;;5060289;28;20055;-75
2024/01/05 02:05:43;;;;;;;0.10;0.10;;;2.30;99.90;;;;;;5057824;28;20021;-75
2024/01/05 02:08:09;;;;;;;0.15;0.15;;;2.30;99.90;;;;;;5035813;28;20045;-75
2024/01/05 02:10:35;;;;;;;0.30;0.30;;;2.30;99.90;;;;;;5053821;28;20096;-75
2024/01/05 02:13:00;;;;;;;0.10;0.10;;;2.30;99.90;;;;;;5058029;28;20043;-75
2024/01/05 02:15:27;;;;;;;0.10;0.10;;;2.30;99.90;;;;;;5056515;28;20019;-75
2024/01/05 02:17:52;;;;;;;0.10;0.10;;;2.30;99.90;;;;;;5049184;28;20528;-74
2024/01/05 02:20:18;;;;;;;0.10;0.10;;;2.30;99.90;;;;;;5049029;28;20096;-75
2024/01/05 02:22:49;;;;;;;4.65;4.45;;;2.20;99.90;;;;;;5048065;28;20013;-75
2024/01/05 02:25:15;;;;;;;5.85;5.65;;;2.20;99.90;;;;;;5054542;28;20033;-75
2024/01/05 02:27:41;;;;;;;0.10;0.10;;;2.20;99.90;;;;;;5046586;28;20037;-75
2024/01/05 02:30:07;;;;;;;0.00;0.00;;;2.10;99.90;;;;;;5047266;28;20071;-75
2024/01/05 02:32:33;;;;;;;0.10;0.10;;;2.10;99.90;;;;;;5033556;28;20120;-75
2024/01/05 02:35:01;;;;;;;0.08;0.08;;;2.10;99.90;;;;;;5049926;28;20037;-75
2024/01/05 02:37:29;;;;;;;0.10;0.10;;;2.10;99.90;;;;;;5049693;28;20014;-75
2024/01/05 02:39:57;;;;;;;0.10;0.10;;;5.10;99.90;;;;;;5049878;28;20021;-75
2024/01/05 02:42:24;;;;;;;0.10;0.10;;;2.10;99.90;;;;;;5049443;28;20028;-75
2024/01/05 02:44:50;;;;;;;5.03;4.80;;;2.10;99.90;;;;;;5028681;28;20048;-74
2024/01/05 02:47:15;;;;;;;0.10;0.10;;;2.10;99.90;;;;;;5046825;28;20114;-75
2024/01/05 02:49:41;;;;;;;0.10;0.10;;;2.10;99.90;;;;;;5047236;28;20029;-75
2024/01/05 02:52:07;;;;;;;0.40;0.40;;;2.10;99.90;;;;;;5048498;28;20068;-75
2024/01/05 02:54:33;;;;;;;0.17;0.17;;;2.10;99.90;;;;;;5044919;28;20077;-75
2024/01/05 02:57:01;;;;;;;0.10;0.10;;;2.10;99.90;;;;;;5048584;28;20023;-74
2024/01/05 02:59:27;;;;;;;0.20;0.20;;;2.10;99.90;;;;;;5058578;28;20101;-75
2024/01/05 03:01:53;;;;;;;0.10;0.10;;;2.10;99.90;;;;;;5047705;28;20064;-75
2024/01/05 03:04:19;;;;;;;0.00;0.00;;;2.10;99.90;;;;;;5045654;28;20082;-75
2024/01/05 03:06:45;;;;;;;0.20;0.20;;;2.10;99.90;;;;;;5028564;28;20227;-75
2024/01/05 03:09:13;;;;;;;0.10;0.10;;;2.00;99.90;;;;;;5045884;28;20741;-75
2024/01/05 03:11:46;;;;;;;0.13;0.13;;;2.10;99.90;;;;;;5056604;28;20055;-75
2024/01/05 03:14:14;;;;;;;0.10;0.10;;;2.00;99.90;;;;;;5049317;28;20028;-75
2024/01/05 03:16:40;;;;;;;0.20;0.20;;;2.00;99.90;;;;;;5018434;28;20021;-75
2024/01/05 03:19:06;;;;;;;0.10;0.10;;;2.00;99.90;;;;;;5046962;28;20771;-75
2024/01/05 03:21:36;;;;;;;0.10;0.10;;;2.00;99.90;;;;;;5047451;28;20025;-75
2024/01/05 03:24:04;;;;;;;0.10;0.10;;;2.00;99.90;;;;;;5047590;28;20052;-75
2024/01/05 03:26:30;;;;;;;0.10;0.10;;;1.90;99.90;;;;;;5047484;28;20028;-75
2024/01/05 03:28:56;;;;;;;0.10;0.10;;;2.00;99.90;;;;;;5031594;28;20186;-75
2024/01/05 03:31:22;;;;;;;0.10;0.10;;;2.00;99.90;;;;;;5052755;28;20021;-76
2024/01/05 03:33:49;;;;;;;0.10;0.10;;;2.00;99.90;;;;;;5055614;28;20033;-75
2024/01/05 03:36:18;;;;;;;0.10;0.10;;;2.00;99.90;;;;;;5060878;28;20013;-75
2024/01/05 03:38:43;;;;;;;0.10;0.10;;;1.90;99.90;;;;;;5037762;28;20045;-75
2024/01/05 03:41:09;;;;;;;0.10;0.10;;;1.90;99.90;;;;;;5055668;28;20083;-75
2024/01/05 03:43:36;;;;;;;3.97;3.88;;;3.40;99.90;;;;;;5055124;28;20423;-75
2024/01/05 03:46:01;;;;;;;0.10;0.10;;;1.80;99.90;;;;;;5063686;28;20021;-75
2024/01/05 03:48:27;;;;;;;0.10;0.10;;;1.80;99.90;;;;;;5039654;28;20078;-75
2024/01/05 03:50:53;;;;;;;0.10;0.10;;;1.80;99.90;;;;;;5057450;28;20028;-75
2024/01/05 03:53:19;;;;;;;0.20;0.20;;;1.80;99.90;;;;;;5056194;28;20029;-74
2024/01/05 03:55:45;;;;;;;0.00;0.00;;;1.90;99.90;;;;;;5053533;28;20028;-75
2024/01/05 03:58:11;;;;;;;0.15;0.15;;;2.00;99.90;;;;;;5054799;28;20028;-75
2024/01/05 04:00:37;;;;;;;0.20;0.20;;;2.00;99.90;;;;;;5035790;28;20037;-75
2024/01/05 04:03:04;;;;;;;0.10;0.10;;;2.00;99.90;;;;;;5054028;28;20040;-75
2024/01/05 04:05:30;;;;;;;0.00;0.00;;;2.00;99.90;;;;;;5054599;28;20025;-75
2024/01/05 04:07:55;;;;;;;0.10;0.10;;;2.00;99.90;;;;;;5053297;28;20033;-74
2024/01/05 04:10:21;;;;;;;0.10;0.10;;;2.00;99.90;;;;;;5054604;28;20013;-75
2024/01/05 04:12:50;;;;;;;0.10;0.10;;;2.00;99.90;;;;;;5054144;28;20028;-75
2024/01/05 04:15:16;;;;;;;0.10;0.10;;;2.00;99.90;;;;;;5053909;28;20021;-75
2024/01/05 04:17:41;;;;;;;0.10;0.10;;;2.00;99.90;;;;;;5055414;28;20055;-75
2024/01/05 04:20:11;;;;;;;0.10;0.10;;;2.00;99.90;;;;;;5036389;28;20017;-75
2024/01/05 04:22:37;;;;;;;0.10;0.10;;;2.00;99.90;;;;;;5036892;28;20013;-75
2024/01/05 04:25:03;;;;;;;0.10;0.10;;;2.00;99.90;;;;;;5036029;28;20021;-74
2024/01/05 04:27:30;;;;;;;0.10;0.10;;;2.10;99.90;;;;;;5053752;28;20041;-75
2024/01/05 04:29:56;;;;;;;0.10;0.10;;;2.10;99.90;;;;;;5053973;28;20028;-74
2024/01/05 04:32:22;;;;;;;0.10;0.10;;;2.10;99.90;;;;;;5062921;28;20076;-75
2024/01/05 04:34:48;;;;;;;0.10;0.10;;;2.10;99.90;;;;;;5057635;28;20020;-75
2024/01/05 04:37:13;;;;;;;0.00;0.00;;;2.10;99.90;;;;;;5058263;28;20037;-75
2024/01/05 04:39:40;;;;;;;0.10;0.10;;;2.20;99.90;;;;;;5063099;28;20032;-76
2024/01/05 04:42:07;;;;;;;0.10;0.10;;;2.20;99.90;;;;;;5058665;28;20028;-75
2024/01/05 04:44:32;;;;;;;0.10;0.10;;;2.20;99.90;;;;;;5056230;28;20033;-75
2024/01/05 04:46:58;;;;;;;0.10;0.10;;;2.10;99.90;;;;;;5053144;28;20601;-75
2024/01/05 04:49:25;;;;;;;0.10;0.10;;;2.10;99.90;;;;;;5051915;28;20510;-75
2024/01/05 04:51:52;;;;;;;0.10;0.10;;;2.10;99.90;;;;;;5053586;28;20542;-75
2024/01/05 04:54:19;;;;;;;0.10;0.10;;;2.20;99.90;;;;;;5057817;28;20037;-75
2024/01/05 04:56:44;;;;;;;0.10;0.10;;;2.20;99.90;;;;;;5061988;28;20063;-75
2024/01/05 04:59:10;;;;;;;0.15;0.15;;;2.20;99.90;;;;;;5045987;28;20820;-75
2024/01/05 05:01:36;;;;;;;0.10;0.10;;;2.20;99.90;;;;;;5038669;28;20028;-75
2024/01/05 05:04:02;;;;;;;0.20;0.20;;;2.10;99.90;;;;;;5053296;28;20017;-75
2024/01/05 05:06:28;;;;;;;0.32;0.32;;;1.40;99.90;;;;;;5054024;28;20035;-75
2024/01/05 05:08:54;;;;;;;0.10;0.10;;;2.20;99.90;;;;;;5050364;28;20028;-75
2024/01/05 05:11:24;;;;;;;0.10;0.10;;;2.20;99.90;;;;;;5056416;28;20100;-75
2024/01/05 05:13:50;;;;;;;0.50;0.50;;;2.20;99.90;;;;;;5056440;28;20048;-75
2024/01/05 05:16:16;;;;;;;0.10;0.10;;;2.20;99.90;;;;;;5059121;28;20013;-76
2024/01/05 05:18:42;;;;;;;0.10;0.10;;;2.20;99.90;;;;;;5047762;28;20060;-75
2024/01/05 05:21:08;;;;;;;0.10;0.10;;;2.20;99.90;;;;;;5051917;28;20021;-76
2024/01/05 05:23:33;;;;;;;0.10;0.10;;;2.20;99.90;;;;;;5050691;28;20088;-74
2024/01/05 05:25:59;;;;;;;0.10;0.10;;;2.20;99.90;;;;;;5051643;28;20072;-76
2024/01/05 05:28:25;;;;;;;0.10;0.10;;;2.20;99.90;;;;;;5059437;28;20072;-75
2024/01/05 05:30:55;;;;;;;0.20;0.20;;;2.20;99.90;;;;;;5052373;28;20035;-75
2024/01/05 05:33:21;;;;;;;0.10;0.10;;;2.20;99.90;;;;;;5032751;28;20013;-75
2024/01/05 05:35:47;;;;;;;0.10;0.10;;;2.20;99.90;;;;;;5053352;28;20035;-75
2024/01/05 05:38:20;;;;;;;0.20;0.20;;;2.20;99.90;;;;;;5037641;28;20025;-75
2024/01/05 05:40:45;;;;;;;0.10;0.10;;;2.10;99.90;;;;;;5060419;28;20025;-75
2024/01/05 05:43:11;;;;;;;0.10;0.10;;;2.10;99.90;;;;;;5054080;28;20697;-75
2024/01/05 05:45:38;;;;;;;0.63;0.63;;;2.10;99.90;;;;;;5053207;28;20025;-75
2024/01/05 05:48:06;;;;;;;0.55;0.55;;;2.00;99.90;;;;;;5060015;28;20029;-75
2024/01/05 05:50:33;;;;;;;0.10;0.10;;;2.00;99.90;;;;;;5058288;28;20021;-75
2024/01/05 05:53:02;;;;;;;0.20;0.20;;;2.00;99.90;;;;;;5064440;28;20024;-75
2024/01/05 05:55:30;;;;;;;0.10;0.10;;;2.00;99.90;;;;;;5069214;28;20013;-75
2024/01/05 05:57:57;;;;;;;0.10;0.10;;;2.00;99.90;;;;;;5094559;23;20146;-75
2024/01/05 06:00:26;;;;;;;33.10;10.95;;;2.00;99.90;;;;;;5039885;28;20009;-75
2024/01/05 06:02:52;;;;;;;0.20;0.20;;;2.00;99.90;;;;;;5029225;28;20024;-75
2024/01/05 06:05:19;;;;;;;0.10;0.10;;;2.10;99.90;;;;;;5047253;28;20584;-75
2024/01/05 06:07:45;;;;;;;0.10;0.10;;;2.10;99.90;;;;;;5025085;28;20026;-75
2024/01/05 06:10:11;;;;;;;0.10;0.10;;;2.20;99.90;;;;;;5026437;28;20081;-75
2024/01/05 06:12:37;;;;;;;0.10;0.10;;;2.10;99.90;;;;;;5018715;28;20045;-75
2024/01/05 06:15:15;;;;;;;0.20;0.20;;;2.10;99.90;;;;;;5040282;28;20017;-75
2024/01/05 06:18:00;;;;;;;0.10;0.10;;;3.20;99.90;;;;;;5044447;28;20730;-75
2024/01/05 06:20:27;;;;;;;0.20;0.20;;;2.10;99.90;;;;;;5024856;28;20029;-75
2024/01/05 06:22:54;;;;;;;0.15;0.15;;;2.10;99.90;;;;;;5047260;28;20642;-74
2024/01/05 06:25:25;;;;;;;0.20;0.20;;;2.00;99.90;;;;;;5044992;28;20014;-75
2024/01/05 06:28:00;;;;;;;0.20;0.20;;;2.10;99.90;;;;;;5041227;28;20584;-74
2024/01/05 06:30:26;;;;;;;0.10;0.10;;;2.10;99.90;;;;;;5020792;28;20021;-74
2024/01/05 06:32:52;;;;;;;0.15;0.15;;;2.10;99.90;;;;;;5033387;28;20021;-75
2024/01/05 06:35:19;;;;;;;0.20;0.20;;;2.10;99.90;;;;;;5032186;28;20036;-75
2024/01/05 06:38:14;;;;;;;0.20;0.20;;;2.10;99.90;;;;;;5042304;28;20093;-75
2024/01/05 06:40:39;;;;;;;0.10;0.10;;;2.10;99.90;;;;;;5043814;28;20091;-76
2024/01/05 06:43:05;;;;;;;0.15;0.15;;;2.20;99.90;;;;;;5022595;28;20060;-75
2024/01/05 06:45:31;;;;;;;0.10;0.10;;;2.20;99.90;;;;;;5033332;28;20018;-75
2024/01/05 06:47:57;;;;;;;0.10;0.10;;;2.30;99.90;;;;;;5029338;28;20021;-75
2024/01/05 06:50:27;;;;;;;0.10;0.10;;;;;;;;;;5024725;28;20060;-75
2024/01/05 06:52:54;;;;;;;0.10;0.10;;;2.40;99.90;;;;;;5038368;23;20049;-79
2024/01/05 06:55:19;;;;;;;0.15;0.15;;;2.40;99.90;;;;;;5029340;28;20155;-75
2024/01/05 06:57:47;;;;;;;0.10;0.10;;;-0.50;99.90;;;;;;5033487;28;20032;-75
2024/01/05 07:00:16;;;;;;;0.10;0.10;;;2.60;99.90;;;;;;5043680;28;20064;-75
2024/01/05 07:02:43;;;;;;;0.10;0.10;;;2.60;99.90;;;;;;5032383;28;20037;-75
2024/01/05 07:05:11;;;;;;;0.10;0.10;;;2.70;99.90;;;;;;5037544;28;20097;-75
2024/01/05 07:07:42;;;;;;;8.82;8.25;;;2.80;99.90;;;;;;5031178;28;20044;-74
2024/01/05 07:10:09;;;;;;;19.13;17.48;;;2.90;99.90;;;;;;5012045;28;20780;-74
2024/01/05 07:12:35;;;;;;;0.55;0.55;;;2.90;99.90;;;;;;5032436;28;20503;-74
2024/01/05 07:15:02;;;;;;;1.85;1.85;;;3.00;99.90;;;;;;5034749;28;20025;-74
2024/01/05 07:17:28;;;;;;;0.30;0.30;;;3.00;99.90;;;;;;5033950;28;20014;-76
2024/01/05 07:19:54;;;;;;;1.52;1.52;;;3.10;99.90;;;;;;5034873;28;20040;-76
2024/01/05 07:22:19;;;;;;;0.10;0.10;;;3.20;99.90;;;;;;5030328;28;20029;-75
2024/01/05 07:24:48;;;;;;;0.03;0.03;;;3.20;99.90;;;;;;5029352;28;20021;-76
2024/01/05 07:27:16;;;;;;;2.28;2.17;;;3.30;99.90;;;;;;5025146;28;20061;-75
2024/01/05 07:29:42;;;;;;;0.35;0.35;;;3.30;99.90;;;;;;5003538;28;20021;-78
2024/01/05 07:32:08;;;;;;;0.10;0.10;;;3.40;99.90;;;;;;5029273;28;20694;-76
2024/01/05 07:34:34;;;;;;;0.00;0.00;;;1.60;99.90;;;;;;5026824;28;20742;-75
2024/01/05 07:37:02;;;;;;;0.10;0.10;;;3.20;99.90;;;;;;5027419;28;20017;-79
2024/01/05 07:39:28;;;;;;;0.00;0.00;;;3.10;99.90;;;;;;5006420;28;20121;-75
2024/01/05 07:41:54;;;;;;;0.57;0.57;;;3.30;99.90;;;;;;5026556;28;20049;-77
2024/01/05 07:44:20;;;;;;;0.00;0.00;;;3.20;99.90;;;;;;5034890;28;20044;-78
2024/01/05 07:46:46;;;;;;;0.10;0.10;;;3.20;99.90;;;;;;5029916;28;20626;-81
2024/01/05 07:49:11;;;;;;;0.10;0.10;;;3.40;99.90;;;;;;5010258;28;20036;-75
2024/01/05 07:51:37;;;;;;;0.10;0.10;;;3.40;99.90;;;;;;5022107;28;20693;-76
2024/01/05 07:54:03;;;;;;;0.00;0.00;;;3.50;99.90;;;;;;5002296;28;20022;-76
2024/01/05 07:56:29;;;;;;;0.30;0.30;;;3.50;99.90;;;;;;5021223;28;20495;-75
2024/01/05 07:58:55;;;;;;;0.17;0.17;;;4.20;99.90;;;;;;5029442;28;20225;-76
2024/01/05 08:01:21;;;;;;;0.10;0.10;;;3.70;99.90;;;;;;5025860;28;20025;-79
2024/01/05 08:03:48;;;;;;;0.10;0.10;;;3.80;99.90;;;;;;5031126;28;20021;-79
2024/01/05 08:06:18;;;;;;;0.10;0.10;;;3.90;99.90;;;;;;5031777;28;20029;-78
2024/01/05 08:08:50;;;;;;;35.33;32.78;;;3.90;99.90;;;;;;5022317;28;20081;-76
2024/01/05 08:11:17;;;;;;;0.15;0.15;;;4.00;99.90;;;;;;5027816;28;20036;-77
2024/01/05 08:13:51;;;;;;;0.05;0.05;;;4.50;99.90;;;;;;5025716;28;20124;-76
2024/01/05 08:16:17;;;;;;;0.10;0.10;;;4.40;99.90;;;;;;5001894;28;20017;-75
2024/01/05 08:18:44;;;;;;;0.60;0.60;;;4.40;99.90;;;;;;5019556;28;20096;-76
2024/01/05 08:21:09;;;;;;;1.95;1.88;;;4.50;99.90;;;;;;5003187;28;20021;-76
2024/01/05 08:23:36;;;;;;;1.50;1.45;;;4.60;99.90;;;;;;5013623;28;20056;-76
2024/01/05 08:26:05;;;;;;;0.10;0.10;;;4.60;99.90;;;;;;5031891;28;20571;-76
2024/01/05 08:28:31;;;;;;;1.23;1.23;;;4.80;99.90;;;;;;5026599;28;20495;-76
2024/01/05 08:30:57;;;;;;;6.95;6.70;;;4.90;99.90;;;;;;5023283;28;20018;-76
2024/01/05 08:33:23;;;;;;;0.10;0.10;;;5.00;99.90;;;;;;5029875;28;20053;-76
2024/01/05 08:35:49;;;;;;;0.15;0.15;;;5.10;99.90;;;;;;5015441;28;20048;-76
2024/01/05 08:38:15;;;;;;;0.00;0.00;;;5.20;99.90;;;;;;5028805;28;20056;-77
2024/01/05 08:40:41;;;;;;;5.40;5.20;;;5.40;99.90;;;;;;5029218;28;20101;-76
2024/01/05 08:43:09;;;;;;;0.52;0.52;;;5.50;99.90;;;;;;5026784;28;20021;-76
2024/01/05 08:45:36;;;;;;;9.98;9.43;;;5.50;99.90;;;;;;5027952;28;20030;-79
2024/01/05 08:48:03;;;;;;;0.10;0.10;;;5.70;99.90;;;;;;5011827;28;20179;-76
2024/01/05 08:50:28;;;;;;;0.17;0.17;;;5.70;99.90;;;;;;5033185;28;20021;-77
2024/01/05 08:52:54;;;;;;;2.75;2.65;;;5.90;99.90;;;;;;5034276;28;20053;-76
2024/01/05 08:55:21;;;;;;;0.10;0.10;;;6.00;99.90;;;;;;5033466;28;20704;-78
2024/01/05 08:57:48;;;;;;;0.40;0.40;;;6.10;99.90;;;;;;5035069;28;20075;-75
2024/01/05 09:00:15;;;;;;;0.20;0.20;;;6.20;99.90;;;;;;5031175;28;20104;-77
2024/01/05 09:02:42;;;;;;;3.97;3.85;;;6.40;99.90;;;;;;5013351;28;20018;-76
2024/01/05 09:05:08;;;;;;;1.38;1.38;;;6.40;99.90;;;;;;5029149;28;20709;-77
2024/01/05 09:07:40;;;;;;;3.55;3.45;;;6.50;99.90;;;;;;5033330;28;20042;-77
2024/01/05 09:10:08;;;;;;;0.10;0.10;;;6.70;99.90;;;;;;5018274;28;20116;-77
2024/01/05 09:12:34;;;;;;;0.20;0.20;;;6.90;99.90;;;;;;5033807;28;20029;-77
2024/01/05 09:15:02;;;;;;;0.22;0.22;;;6.90;99.90;;;;;;5015627;28;20049;-81
2024/01/05 09:17:27;;;;;;;3.35;3.22;;;7.10;99.90;;;;;;5035343;28;20021;-76
2024/01/05 09:19:56;;;;;;;0.30;0.30;;;7.20;99.90;;;;;;5035669;28;20021;-76
2024/01/05 09:22:22;;;;;;;0.10;0.10;;;7.10;99.90;;;;;;5014260;28;20095;-76
2024/01/05 09:24:48;;;;;;;0.13;0.13;;;7.30;99.90;;;;;;5032265;28;20684;-76
2024/01/05 09:27:14;;;;;;;0.10;0.10;;;7.40;99.90;;;;;;5030369;28;20040;-76
2024/01/05 09:29:40;;;;;;;0.47;0.47;;;7.60;99.90;;;;;;5027736;28;20120;-77
2024/01/05 09:32:06;;;;;;;2.90;2.70;;;7.90;99.90;;;;;;5025030;28;20068;-77
2024/01/05 09:34:32;;;;;;;0.75;0.75;;;8.20;99.90;;;;;;5042893;28;20701;-77
2024/01/05 09:36:58;;;;;;;0.45;0.45;;;8.70;99.90;;;;;;5050598;28;20071;-76
2024/01/05 09:39:23;;;;;;;0.10;0.10;;;9.00;99.90;;;;;;5048063;28;20046;-78
2024/01/05 09:41:50;;;;;;;0.15;0.15;;;9.60;99.90;;;;;;5050136;28;20052;-76
2024/01/05 09:44:17;;;;;;;0.40;0.40;;;9.70;99.90;;;;;;5061543;28;20023;-76
2024/01/05 09:46:44;;;;;;;0.20;0.20;;;9.80;99.90;;;;;;5048575;28;20013;-76
2024/01/05 09:49:13;;;;;;;0.10;0.10;;;10.10;99.90;;;;;;5047590;28;20662;-77
2024/01/05 09:51:40;;;;;;;0.20;0.20;;;11.60;99.90;;;;;;5047710;28;20045;-76
2024/01/05 09:54:06;;;;;;;1.02;1.00;;;10.90;99.90;;;;;;5051551;28;20027;-77
2024/01/05 09:56:37;;;;;;;0.50;0.50;;;11.20;99.90;;;;;;5053200;28;20059;-76
2024/01/05 09:59:04;;;;;;;0.20;0.20;;;11.30;99.90;;;;;;5031275;28;20767;-77
2024/01/05 10:01:30;;;;;;;0.30;0.30;;;11.60;99.90;;;;;;5052816;28;20043;-76
2024/01/05 10:04:09;;;;;;;0.20;0.20;;;12.00;99.90;;;;;;5050512;28;20021;-78
2024/01/05 10:06:35;;;;;;;0.20;0.20;;;11.40;99.90;;;;;;5044507;28;20071;-76
2024/01/05 10:09:01;;;;;;;0.20;0.20;;;12.40;99.90;;;;;;5047899;28;20079;-77
2024/01/05 10:11:35;;;;;;;0.20;0.20;;;12.60;99.90;;;;;;5053220;28;20043;-77
2024/01/05 10:14:03;;;;;;;0.20;0.20;;;12.80;99.90;;;;;;5021870;28;20052;-76
2024/01/05 10:16:39;;;;;;;0.20;0.20;;;12.90;99.90;;;;;;5039539;28;20021;-80
2024/01/05 10:19:11;;;;;;;7.55;7.05;;;13.10;99.90;;;;;;5039097;28;20033;-77
2024/01/05 10:21:42;;;;;;;0.95;0.95;;;13.20;99.90;;;;;;5039213;28;20037;-77
2024/01/05 10:24:29;;;;;;;0.20;0.20;;;13.50;99.90;;;;;;5038441;28;20025;-76
2024/01/05 10:27:06;;;;;;;0.20;0.20;;;13.60;99.90;;;;;;5038444;28;20013;-76
2024/01/05 10:29:33;;;;;;;0.20;0.20;;;13.60;99.90;;;;;;5039535;28;20033;-78
2024/01/05 10:32:25;;;;;;;0.20;0.20;;;13.60;99.90;;;;;;5039110;28;20506;-76
2024/01/05 10:34:51;;;;;;;0.20;0.20;;;13.80;99.90;;;;;;4943292;28;20032;-78
2024/01/05 10:37:22;;;;;;;0.20;0.20;;;13.90;99.90;;;;;;4921901;29;20041;-78
2024/01/05 10:39:52;;;;;;;0.20;0.20;;;13.90;99.50;;;;;;4938233;29;20024;-83
2024/01/05 10:42:36;;;;;;;0.20;0.20;;;14.20;99.70;;;;;;4937931;29;20031;-80
2024/01/05 10:45:04;;;;;;;0.20;0.20;;;14.30;99.50;;;;;;4937425;28;20054;-76
2024/01/05 10:47:30;;;;;;;0.20;0.20;;;14.40;99.20;;;;;;4938232;29;20108;-85
2024/01/05 10:49:56;;;;;;;0.20;0.20;;;14.40;98.90;;;;;;4937398;29;20015;-77
2024/01/05 10:52:27;;;;;;;0.20;0.20;;;14.40;98.50;;;;;;4937498;29;20057;-80
2024/01/05 10:54:54;;;;;;;0.20;0.20;;;14.50;98.10;;;;;;4938186;29;20027;-79
2024/01/05 10:57:20;;;;;;;0.20;0.20;;;14.30;98.60;;;;;;4940388;29;20035;-76
2024/01/05 10:59:48;;;;;;;0.20;0.20;;;14.20;98.70;;;;;;4950784;29;20047;-77
2024/01/05 11:02:46;;;;;;;0.20;0.20;;;14.10;98.70;;;;;;4941463;28;20747;-87
2024/01/05 11:05:13;;;;;;;0.20;0.20;;;14.30;99.00;;;;;;4939163;29;20039;-81
2024/01/05 11:07:42;;;;;;;0.20;0.20;;;13.10;98.30;;;;;;4937490;29;20031;-79
2024/01/05 11:10:40;;;;;;;0.20;0.20;;;14.10;98.40;;;;;;4938312;29;20090;-85
2024/01/05 11:13:24;;;;;;;0.20;0.20;;;13.80;99.10;;;;;;5003150;28;20026;-81
2024/01/05 11:16:07;;;;;;;0.20;0.20;;;13.60;98.90;;;;;;5018773;28;20010;-76
2024/01/05 11:19:00;;;;;;;0.20;0.20;;;13.60;99.50;;;;;;5019582;28;20033;-78
2024/01/05 11:21:44;;;;;;;0.20;0.20;;;13.60;98.70;;;;;;5031098;28;20017;-76
2024/01/05 11:24:18;;;;;;;0.20;0.20;;;13.50;99.60;;;;;;5024094;28;20021;-76
2024/01/05 11:26:43;;;;;;;0.20;0.20;;;13.40;99.60;;;;;;5017295;28;20434;-76
2024/01/05 11:29:13;;;;;;;0.20;0.20;;;13.40;99.90;;;;;;5029189;28;20032;-76
2024/01/05 11:31:48;;;;;;;4.22;4.13;;;13.40;99.70;;;;;;5032657;28;20017;-76
2024/01/05 11:34:30;;;;;;;0.20;0.20;;;13.20;99.90;;;;;;5026259;28;20714;-76
2024/01/05 11:36:56;;;;;;;0.40;0.40;;;13.40;99.60;;;;;;5027446;28;20025;-77
2024/01/05 11:39:44;;;;;;;0.20;0.20;;;13.50;99.90;;;;;;5027895;28;20071;-76
2024/01/05 11:42:29;;;;;;;0.20;0.20;;;13.40;99.90;;;;;;5002754;28;20217;-76
2024/01/05 11:44:57;;;;;;;0.20;0.20;;;13.40;99.90;;;;;;5004789;28;20053;-77
2024/01/05 11:47:46;;;;;;;0.20;0.20;;;13.40;99.90;;;;;;5027771;28;20680;-77
2024/01/05 11:50:33;;;;;;;0.20;0.20;;;13.40;99.90;;;;;;5031710;28;20021;-78
2024/01/05 11:53:13;;;;;;;0.20;0.20;;;13.40;99.90;;;;;;5030903;28;20129;-77
2024/01/05 11:56:00;;;;;;;0.20;0.20;;;14.60;99.90;;;;;;5021568;28;20537;-76
2024/01/05 11:58:28;;;;;;;0.20;0.20;;;13.40;99.90;;;;;;5021901;28;20020;-76
2024/01/05 12:00:58;;;;;;;0.20;0.20;;;13.40;99.90;;;;;;5022899;28;20030;-78
2024/01/05 12:03:25;;;;;;;0.20;0.20;;;12.10;99.90;;;;;;5027210;28;20524;-79
2024/01/05 12:05:56;;;;;;;0.20;0.20;;;13.30;99.90;;;;;;5022503;28;20045;-76
2024/01/05 12:08:24;;;;;;;0.20;0.20;;;13.30;99.90;;;;;;5025738;28;20732;-78
2024/01/05 12:10:57;;;;;;;0.20;0.20;;;13.40;99.90;;;;;;5022121;28;20678;-77
2024/01/05 12:13:27;;;;;;;0.20;0.20;;;13.20;99.90;;;;;;5003282;28;20128;-77
2024/01/05 12:16:02;;;;;;;0.20;0.20;;;13.30;99.90;;;;;;5021700;28;20034;-76
2024/01/05 12:18:30;;;;;;;0.20;0.20;;;13.30;99.90;;;;;;5022203;28;20106;-77
2024/01/05 12:20:58;;;;;;;0.20;0.20;;;13.30;99.90;;;;;;5022248;28;20048;-76
2024/01/05 12:23:26;;;;;;;0.20;0.20;;;13.30;99.90;;;;;;5028114;28;20047;-83
2024/01/05 12:26:01;;;;;;;0.20;0.20;;;13.20;99.90;;;;;;5003828;28;20033;-77
2024/01/05 12:28:50;;;;;;;0.20;0.20;;;13.20;99.90;;;;;;5022412;28;20042;-77
2024/01/05 12:31:19;;;;;;;0.20;0.20;;;13.20;99.90;;;;;;5019497;28;20032;-77
2024/01/05 12:33:46;;;;;;;0.20;0.20;;;13.30;99.90;;;;;;5020928;28;20068;-77
2024/01/05 12:36:23;;;;;;;0.20;0.20;;;13.20;99.90;;;;;;5020778;28;20021;-78
2024/01/05 12:38:50;;;;;;;0.20;0.20;;;13.20;99.90;;;;;;5020862;28;20507;-77
2024/01/05 12:41:21;;;;;;;0.20;0.20;;;13.20;99.90;;;;;;5022037;28;20491;-79
2024/01/05 12:43:51;;;;;;;0.20;0.20;;;13.20;99.90;;;;;;5021062;28;20024;-76
2024/01/05 12:46:18;;;;;;;0.20;0.20;;;13.30;99.90;;;;;;5020855;28;20020;-80
2024/01/05 12:48:44;;;;;;;0.20;0.20;;;13.20;99.90;;;;;;5021346;28;20028;-76
2024/01/05 12:51:15;;;;;;;0.20;0.20;;;13.30;99.90;;;;;;5020032;28;20022;-79
2024/01/05 12:53:42;;;;;;;0.20;0.20;;;13.20;99.90;;;;;;5026335;28;20672;-78
2024/01/05 12:56:13;;;;;;;0.20;0.20;;;13.20;99.90;;;;;;5026949;28;20101;-79
2024/01/05 12:58:43;;;;;;;30.77;7.22;;;13.30;99.90;;;;;;5025782;28;20032;-77
2024/01/05 13:01:17;;;;;;;0.20;0.20;;;13.30;99.90;;;;;;5024768;28;20025;-78